Aviation Digital Data Service (ADDS)

Output produced by METARs form (1603 UTC 22 September 2019)
found at http://www.aviationweather.gov/metar/data/
 
LFRN 221530Z AUTO 23013KT 9999 FEW037 20/12 Q1007 TEMPO 22015G27KT 4000 SHRA SCT020CB SCT025TCU
TAF AMD LFRN 221502Z 2215/2312 22013KT 9999 BKN030 
     TEMPO 2215/2219 22015G27KT 4000 SHRA SCT020CB SCT025TCU 
     PROB30 
     TEMPO 2215/2217 TSRA BKN020CB 
     BECMG 2301/2303 23005KT 
     TEMPO 2303/2307 3000 BR BKN010 
     BECMG 2308/2310 19010KT